createdAt,value
2023-02-28T00:00:28.182Z,1.53
2023-02-28T00:02:56.162Z,1.59
2023-02-28T00:05:26.856Z,1.59
2023-02-28T00:07:54.673Z,1.50
2023-02-28T00:10:24.788Z,1.59
2023-02-28T00:12:55.171Z,1.78
2023-02-28T00:15:24.118Z,1.77
2023-02-28T00:17:51.946Z,1.81
2023-02-28T00:20:20.525Z,1.92
2023-02-28T00:22:53.922Z,1.92
2023-02-28T00:25:24.930Z,1.93
2023-02-28T00:27:53.174Z,1.82
2023-02-28T00:30:23.783Z,1.87
2023-02-28T00:32:52.359Z,1.95
2023-02-28T00:35:20.082Z,1.83
2023-02-28T00:37:50.351Z,1.90
2023-02-28T00:40:18.009Z,1.90
2023-02-28T00:42:45.682Z,1.89
2023-02-28T00:45:13.324Z,1.99
2023-02-28T00:47:40.934Z,1.93
2023-02-28T00:50:09.898Z,1.90
2023-02-28T00:52:37.974Z,1.96
2023-02-28T00:55:06.546Z,2.04
2023-02-28T00:57:34.621Z,2.00
2023-02-28T01:00:02.202Z,1.99
2023-02-28T01:02:31.695Z,1.89
2023-02-28T01:04:59.261Z,1.92
2023-02-28T01:07:26.799Z,1.85
2023-02-28T01:09:54.643Z,1.90
2023-02-28T01:12:22.131Z,1.93
2023-02-28T01:14:49.910Z,1.86
2023-02-28T01:17:18.326Z,1.89
2023-02-28T01:19:46.074Z,1.90
2023-02-28T01:22:13.574Z,1.90
2023-02-28T01:24:43.896Z,1.92
2023-02-28T01:27:13.809Z,1.93
2023-02-28T01:29:41.436Z,2.05
2023-02-28T01:32:10.643Z,2.04
2023-02-28T01:34:38.567Z,2.14
2023-02-28T01:37:06.120Z,2.06
2023-02-28T01:39:33.792Z,2.09
2023-02-28T01:42:01.330Z,2.11
2023-02-28T01:45:02.776Z,2.22
2023-02-28T01:47:40.004Z,2.17
2023-02-28T01:50:13.600Z,2.15
2023-02-28T01:52:42.341Z,2.13
2023-02-28T01:55:12.979Z,2.14
2023-02-28T01:57:48.321Z,2.15
2023-02-28T02:00:21.665Z,2.15
2023-02-28T02:02:52.521Z,2.07
2023-02-28T02:05:23.168Z,2.18
2023-02-28T02:07:56.560Z,2.12
2023-02-28T02:10:45.689Z,2.27
2023-02-28T02:13:25.559Z,2.19
2023-02-28T02:16:01.741Z,2.14
2023-02-28T02:18:39.246Z,2.10
2023-02-28T02:21:29.973Z,2.08
2023-02-28T02:24:06.752Z,2.02
2023-02-28T02:27:04.836Z,2.12
2023-02-28T02:29:56.525Z,2.05
2023-02-28T02:32:42.402Z,2.23
2023-02-28T02:35:30.469Z,2.19
2023-02-28T02:38:50.396Z,2.30
2023-02-28T02:41:26.196Z,2.22
2023-02-28T02:44:06.879Z,2.17
2023-02-28T02:46:42.097Z,2.20
2023-02-28T02:49:21.837Z,2.36
2023-02-28T02:51:51.082Z,2.19
2023-02-28T02:54:30.038Z,2.19
2023-02-28T02:57:13.245Z,2.18
2023-02-28T02:59:42.808Z,2.11
2023-02-28T03:02:16.199Z,2.10
2023-02-28T03:05:10.072Z,2.19
2023-02-28T03:07:38.080Z,2.07
2023-02-28T03:10:51.450Z,2.25
2023-02-28T03:13:55.357Z,2.33
2023-02-28T03:16:37.891Z,2.40
2023-02-28T03:19:18.528Z,2.27
2023-02-28T03:22:04.456Z,2.34
2023-02-28T03:24:52.302Z,2.43
2023-02-28T03:28:02.612Z,2.46
2023-02-28T03:31:00.926Z,2.50
2023-02-28T03:33:37.407Z,2.41
2023-02-28T03:36:30.434Z,2.40
2023-02-28T03:39:09.298Z,2.60
2023-02-28T03:41:55.138Z,2.55
2023-02-28T03:45:21.122Z,2.57
2023-02-28T03:47:54.936Z,2.51
2023-02-28T03:50:42.456Z,2.64
2023-02-28T03:53:18.659Z,2.54
2023-02-28T03:55:50.542Z,2.48
2023-02-28T03:58:31.822Z,2.44
2023-02-28T04:01:09.443Z,2.48
2023-02-28T04:03:38.414Z,2.44
2023-02-28T04:06:09.746Z,2.49
2023-02-28T04:08:37.348Z,2.53
2023-02-28T04:11:18.257Z,2.67
2023-02-28T04:13:47.527Z,2.54
2023-02-28T04:16:32.126Z,2.50
2023-02-28T04:19:07.062Z,2.52
2023-02-28T04:21:37.445Z,2.59
2023-02-28T04:24:05.502Z,2.52
2023-02-28T04:26:35.040Z,2.53
2023-02-28T04:29:04.361Z,2.47
2023-02-28T04:31:32.595Z,2.43
2023-02-28T04:34:01.203Z,2.44
2023-02-28T04:36:28.737Z,2.51
2023-02-28T04:38:56.796Z,2.50
2023-02-28T04:41:25.211Z,2.61
2023-02-28T04:43:54.198Z,2.62
2023-02-28T04:46:22.135Z,2.49
2023-02-28T04:48:49.829Z,2.51
2023-02-28T04:51:19.329Z,2.59
2023-02-28T04:53:47.244Z,2.69
2023-02-28T04:56:17.246Z,2.69
2023-02-28T04:58:45.610Z,2.74
2023-02-28T05:01:19.235Z,2.93
2023-02-28T05:03:46.753Z,2.88
2023-02-28T05:06:15.144Z,2.90
2023-02-28T05:08:42.713Z,2.95
2023-02-28T05:11:22.667Z,3.06
2023-02-28T05:13:50.655Z,2.96
2023-02-28T05:16:18.843Z,3.04
2023-02-28T05:18:46.981Z,3.08
2023-02-28T05:21:34.416Z,3.18
2023-02-28T05:24:05.191Z,3.08
2023-02-28T05:26:36.243Z,2.97
2023-02-28T05:29:04.062Z,2.83
2023-02-28T05:31:31.962Z,2.82
2023-02-28T05:34:00.006Z,2.96
2023-02-28T05:36:27.528Z,2.94
2023-02-28T05:38:55.233Z,3.01
2023-02-28T05:41:23.085Z,2.91
2023-02-28T05:43:50.749Z,2.99
2023-02-28T05:46:18.331Z,3.00
2023-02-28T05:48:49.107Z,3.06
2023-02-28T05:51:17.668Z,3.02
2023-02-28T05:53:45.547Z,3.05
2023-02-28T05:56:13.329Z,3.12
2023-02-28T05:58:40.796Z,3.13
2023-02-28T06:01:26.964Z,3.24
2023-02-28T06:03:54.830Z,3.11
2023-02-28T06:06:22.844Z,3.07
2023-02-28T06:08:50.969Z,3.11
2023-02-28T06:11:18.724Z,3.23
2023-02-28T06:13:46.208Z,3.34
2023-02-28T06:16:14.095Z,3.63
2023-02-28T06:18:41.649Z,3.82
2023-02-28T06:21:10.274Z,4.02
2023-02-28T06:23:37.914Z,4.46
2023-02-28T06:26:05.745Z,4.94
2023-02-28T06:28:33.540Z,5.27
2023-02-28T06:31:01.202Z,5.53
2023-02-28T06:33:28.746Z,5.79
2023-02-28T06:35:56.684Z,6.12
2023-02-28T06:38:24.478Z,6.46
2023-02-28T06:40:59.951Z,6.71
2023-02-28T06:43:30.067Z,6.98
2023-02-28T06:45:59.607Z,7.14
2023-02-28T06:48:28.671Z,7.18
2023-02-28T06:51:14.613Z,7.30
2023-02-28T06:53:42.673Z,7.28
2023-02-28T06:56:18.490Z,7.39
2023-02-28T06:58:50.745Z,7.35
2023-02-28T07:01:18.738Z,7.01
2023-02-28T07:03:47.082Z,6.80
2023-02-28T07:06:14.631Z,6.73
2023-02-28T07:08:42.482Z,6.83
2023-02-28T07:11:10.032Z,6.81
2023-02-28T07:13:38.276Z,6.62
2023-02-28T07:16:08.044Z,6.68
2023-02-28T07:18:36.670Z,6.45
2023-02-28T07:21:06.165Z,6.40
2023-02-28T07:23:33.817Z,6.38
2023-02-28T07:26:01.640Z,6.44
2023-02-28T07:28:29.459Z,6.32
2023-02-28T07:30:57.074Z,6.23
2023-02-28T07:33:25.295Z,6.17
2023-02-28T07:35:53.193Z,6.08
2023-02-28T07:38:20.669Z,6.11
2023-02-28T07:40:48.309Z,6.26
2023-02-28T07:43:15.803Z,6.26
2023-02-28T07:45:43.301Z,6.27
2023-02-28T07:48:11.443Z,6.33
2023-02-28T07:50:39.212Z,6.48
2023-02-28T07:53:06.944Z,6.50
2023-02-28T07:55:34.515Z,6.55
2023-02-28T07:58:02.095Z,6.65
2023-02-28T08:00:30.417Z,6.64
2023-02-28T08:02:58.042Z,6.66
2023-02-28T08:05:25.638Z,6.61
2023-02-28T08:07:54.648Z,6.58
2023-02-28T08:10:22.231Z,6.62
2023-02-28T08:12:49.736Z,6.68
2023-02-28T08:15:17.479Z,6.74
2023-02-28T08:17:44.992Z,6.64
2023-02-28T08:20:12.931Z,6.48
2023-02-28T08:22:40.485Z,6.54
2023-02-28T08:25:08.682Z,6.51
2023-02-28T08:27:36.713Z,6.57
2023-02-28T08:30:05.065Z,6.68
2023-02-28T08:32:34.965Z,6.56
2023-02-28T08:35:04.320Z,6.50
2023-02-28T08:37:32.163Z,6.36
2023-02-28T08:39:59.724Z,6.40
2023-02-28T08:42:27.416Z,6.31
2023-02-28T08:44:55.123Z,6.24
2023-02-28T08:47:22.557Z,6.20
2023-02-28T08:49:50.143Z,6.15
2023-02-28T08:52:17.763Z,6.20
2023-02-28T08:54:45.321Z,6.06
2023-02-28T08:57:12.959Z,5.94
2023-02-28T08:59:40.559Z,5.92
2023-02-28T09:02:09.744Z,6.00
2023-02-28T09:04:37.367Z,6.09
2023-02-28T09:07:05.049Z,5.95
2023-02-28T09:09:32.648Z,5.87
2023-02-28T09:12:00.677Z,5.78
2023-02-28T09:14:28.161Z,5.68
2023-02-28T09:16:56.252Z,5.61
2023-02-28T09:19:24.046Z,5.65
2023-02-28T09:21:51.556Z,5.51
2023-02-28T09:24:19.623Z,5.48
2023-02-28T09:26:56.789Z,5.53
2023-02-28T09:29:32.800Z,5.70
2023-02-28T09:32:00.694Z,5.50
2023-02-28T09:34:29.610Z,5.42
2023-02-28T09:36:57.673Z,5.28
2023-02-28T09:39:25.662Z,5.13
2023-02-28T09:41:55.108Z,5.23
2023-02-28T09:44:42.302Z,5.26
2023-02-28T09:47:35.911Z,5.41
2023-02-28T09:50:43.875Z,5.40
2023-02-28T09:53:45.789Z,5.40
2023-02-28T09:56:27.864Z,5.22
2023-02-28T09:59:07.074Z,5.27
2023-02-28T10:01:53.480Z,5.29
2023-02-28T10:04:45.376Z,5.32
2023-02-28T10:07:23.427Z,5.21
2023-02-28T10:09:56.721Z,5.02
2023-02-28T10:12:26.237Z,5.01
2023-02-28T10:14:56.436Z,4.92
2023-02-28T10:17:49.433Z,4.95
2023-02-28T10:20:31.183Z,4.90
2023-02-28T10:23:20.279Z,5.02
2023-02-28T10:25:59.996Z,4.98
2023-02-28T10:28:34.304Z,4.96
2023-02-28T10:31:02.575Z,4.77
2023-02-28T10:33:36.941Z,4.92
2023-02-28T10:36:08.041Z,4.88
2023-02-28T10:38:38.593Z,4.75
2023-02-28T10:41:08.998Z,4.73
2023-02-28T10:43:37.387Z,4.79
2023-02-28T10:46:11.060Z,4.91
2023-02-28T10:49:04.655Z,5.01
2023-02-28T10:51:40.748Z,5.06
2023-02-28T10:54:18.050Z,5.12
2023-02-28T10:56:45.641Z,5.01
2023-02-28T10:59:16.338Z,5.17
2023-02-28T11:01:50.247Z,4.95
2023-02-28T11:04:27.365Z,4.83
2023-02-28T11:06:59.251Z,4.83
2023-02-28T11:09:32.525Z,4.88
2023-02-28T11:12:00.578Z,4.75
2023-02-28T11:14:37.164Z,4.82
2023-02-28T11:17:20.208Z,4.74
2023-02-28T11:19:51.248Z,4.76
2023-02-28T11:22:27.416Z,4.68
2023-02-28T11:24:57.969Z,4.63
2023-02-28T11:27:31.577Z,4.58
2023-02-28T11:30:00.297Z,4.60
2023-02-28T11:32:31.769Z,4.61
2023-02-28T11:35:06.150Z,4.64
2023-02-28T11:37:34.586Z,4.53
2023-02-28T11:40:02.568Z,4.53
2023-02-28T11:42:57.094Z,4.51
2023-02-28T11:45:55.304Z,4.66
2023-02-28T11:48:25.069Z,4.68
2023-02-28T11:51:17.169Z,4.67
2023-02-28T11:53:51.534Z,4.46
2023-02-28T11:56:22.182Z,4.44
2023-02-28T11:58:49.822Z,4.40
2023-02-28T12:01:23.324Z,4.44
2023-02-28T12:04:18.143Z,4.59
2023-02-28T12:06:48.495Z,4.20
2023-02-28T12:09:22.199Z,4.20
2023-02-28T12:11:54.729Z,4.43
2023-02-28T12:14:59.841Z,4.44
2023-02-28T12:17:33.982Z,4.15
2023-02-28T12:20:26.134Z,4.02
2023-02-28T12:23:31.060Z,4.00
2023-02-28T12:26:36.326Z,4.00
2023-02-28T12:29:31.412Z,4.03
2023-02-28T12:32:19.956Z,3.96
2023-02-28T12:35:00.443Z,3.83
2023-02-28T12:37:49.706Z,3.80
2023-02-28T12:40:27.519Z,3.68
2023-02-28T12:43:08.888Z,3.71
2023-02-28T12:45:51.895Z,3.58
2023-02-28T12:48:33.144Z,3.65
2023-02-28T12:51:03.377Z,3.50
2023-02-28T12:53:49.784Z,3.69
2023-02-28T12:56:45.654Z,3.73
2023-02-28T12:59:16.779Z,3.30
2023-02-28T13:01:53.487Z,3.23
2023-02-28T13:04:39.895Z,3.35
2023-02-28T13:07:40.970Z,3.52
2023-02-28T13:10:09.183Z,3.19
2023-02-28T13:12:37.673Z,3.26
2023-02-28T13:15:22.649Z,3.25
2023-02-28T13:17:54.801Z,3.51
2023-02-28T13:20:26.640Z,3.55
2023-02-28T13:22:56.349Z,3.43
2023-02-28T13:25:23.978Z,3.33
2023-02-28T13:28:02.132Z,3.13
2023-02-28T13:30:57.092Z,3.24
2023-02-28T13:33:34.945Z,3.07
2023-02-28T13:36:12.832Z,3.07
2023-02-28T13:38:46.574Z,2.86
2023-02-28T13:41:32.934Z,2.89
2023-02-28T13:44:24.569Z,2.99
2023-02-28T13:46:52.769Z,2.94
2023-02-28T13:49:38.277Z,2.72
2023-02-28T13:52:09.959Z,2.76
2023-02-28T13:55:00.342Z,2.78
2023-02-28T13:57:43.280Z,2.76
2023-02-28T14:00:37.765Z,2.61
2023-02-28T14:03:41.591Z,2.59
2023-02-28T14:06:27.511Z,2.61
2023-02-28T14:09:18.221Z,2.29
2023-02-28T14:11:47.804Z,2.44
2023-02-28T14:14:37.317Z,2.32
2023-02-28T14:17:08.034Z,2.26
2023-02-28T14:19:38.544Z,2.23
2023-02-28T14:22:38.844Z,2.23
2023-02-28T14:25:18.562Z,2.28
2023-02-28T14:27:58.392Z,2.28
2023-02-28T14:31:03.102Z,2.31
2023-02-28T14:33:31.972Z,2.20
2023-02-28T14:36:26.558Z,2.25
2023-02-28T14:38:58.673Z,2.07
2023-02-28T14:41:33.077Z,2.08
2023-02-28T14:44:02.397Z,2.11
2023-02-28T14:46:42.267Z,2.09
2023-02-28T14:49:29.801Z,2.04
2023-02-28T14:52:24.002Z,2.05
2023-02-28T14:55:03.039Z,1.97
2023-02-28T14:57:43.226Z,2.00
2023-02-28T15:00:32.963Z,2.00
2023-02-28T15:03:02.579Z,1.92
2023-02-28T15:05:36.544Z,1.98
2023-02-28T15:08:06.871Z,1.78
2023-02-28T15:10:35.340Z,1.70
2023-02-28T15:13:16.272Z,1.84
2023-02-28T15:16:06.254Z,1.52
2023-02-28T15:18:39.841Z,1.52
2023-02-28T15:21:26.913Z,1.62
2023-02-28T15:23:54.518Z,1.62
2023-02-28T15:26:25.530Z,1.65
2023-02-28T15:29:00.663Z,1.63
2023-02-28T15:31:41.191Z,1.66
2023-02-28T15:34:36.989Z,1.80
2023-02-28T15:37:34.690Z,1.70
2023-02-28T15:40:19.540Z,1.83
2023-02-28T15:43:17.627Z,1.87
2023-02-28T15:45:50.837Z,1.71
2023-02-28T15:48:22.981Z,1.65
2023-02-28T15:50:55.223Z,1.84
2023-02-28T15:53:29.938Z,1.70
2023-02-28T15:56:09.148Z,1.69
2023-02-28T15:58:38.251Z,1.53
2023-02-28T16:01:07.852Z,1.71
2023-02-28T16:03:51.141Z,1.74
2023-02-28T16:06:18.744Z,1.67
2023-02-28T16:08:50.800Z,1.51
2023-02-28T16:11:20.351Z,1.48
2023-02-28T16:13:48.251Z,1.49
2023-02-28T16:16:20.702Z,1.56
2023-02-28T16:18:48.995Z,1.42
2023-02-28T16:21:16.928Z,1.48
2023-02-28T16:23:47.487Z,1.66
2023-02-28T16:26:25.325Z,1.66
2023-02-28T16:28:53.534Z,1.45
2023-02-28T16:31:21.726Z,1.60
2023-02-28T16:33:49.494Z,1.47
2023-02-28T16:36:20.001Z,1.34
2023-02-28T16:38:49.801Z,1.30
2023-02-28T16:41:21.853Z,1.26
2023-02-28T16:43:52.938Z,1.34
2023-02-28T16:46:22.291Z,1.36
2023-02-28T16:48:52.789Z,1.28
2023-02-28T16:51:20.454Z,1.23
2023-02-28T16:53:48.343Z,1.27
2023-02-28T16:56:23.325Z,1.39
2023-02-28T16:58:52.605Z,1.45
2023-02-28T17:01:23.394Z,1.36
2023-02-28T17:03:51.764Z,1.31
2023-02-28T17:06:24.635Z,1.41
2023-02-28T17:08:53.104Z,1.40
2023-02-28T17:11:22.287Z,1.48
2023-02-28T17:13:50.490Z,1.57
2023-02-28T17:16:30.789Z,1.61
2023-02-28T17:19:01.598Z,1.51
2023-02-28T17:21:30.197Z,1.43
2023-02-28T17:23:58.222Z,1.50
2023-02-28T17:26:26.229Z,1.57
2023-02-28T17:28:57.074Z,1.43
2023-02-28T17:31:28.782Z,1.59
2023-02-28T17:33:56.567Z,1.68
2023-02-28T17:36:27.920Z,1.62
2023-02-28T17:38:59.789Z,1.60
2023-02-28T17:41:31.700Z,1.54
2023-02-28T17:43:59.520Z,1.52
2023-02-28T17:46:28.134Z,1.49
2023-02-28T17:48:56.207Z,1.57
2023-02-28T17:51:25.913Z,1.52
2023-02-28T17:53:53.956Z,1.51
2023-02-28T17:56:26.892Z,1.46
2023-02-28T17:58:56.380Z,1.34
2023-02-28T18:01:28.071Z,1.40
2023-02-28T18:03:57.053Z,1.34
2023-02-28T18:06:37.155Z,1.38
2023-02-28T18:09:04.729Z,1.48
2023-02-28T18:11:42.745Z,1.49
2023-02-28T18:14:10.525Z,1.48
2023-02-28T18:16:39.338Z,1.42
2023-02-28T18:19:07.474Z,1.35
2023-02-28T18:21:35.080Z,1.24
2023-02-28T18:24:02.650Z,1.18
2023-02-28T18:26:30.623Z,1.31
2023-02-28T18:28:58.692Z,1.16
2023-02-28T18:31:26.276Z,1.21
2023-02-28T18:33:54.347Z,1.27
2023-02-28T18:36:22.395Z,1.30
2023-02-28T18:38:53.586Z,1.28
2023-02-28T18:41:22.273Z,1.18
2023-02-28T18:43:52.163Z,1.19
2023-02-28T18:46:23.870Z,1.11
2023-02-28T18:48:51.475Z,0.98
2023-02-28T18:51:21.830Z,1.10
2023-02-28T18:53:50.828Z,0.97
2023-02-28T18:56:20.385Z,1.05
2023-02-28T18:58:48.116Z,0.94
2023-02-28T19:01:17.591Z,0.96
2023-02-28T19:03:45.961Z,0.93
2023-02-28T19:06:14.520Z,0.93
2023-02-28T19:08:42.197Z,1.02
2023-02-28T19:11:15.017Z,1.06
2023-02-28T19:13:44.772Z,0.82
2023-02-28T19:16:14.942Z,0.89
2023-02-28T19:18:42.916Z,0.81
2023-02-28T19:21:13.322Z,0.85
2023-02-28T19:23:42.576Z,0.94
2023-02-28T19:26:13.162Z,0.92
2023-02-28T19:28:41.372Z,0.76
2023-02-28T19:31:20.131Z,0.93
2023-02-28T19:33:48.418Z,0.84
2023-02-28T19:36:16.939Z,0.84
2023-02-28T19:38:45.464Z,0.89
2023-02-28T19:41:15.371Z,1.09
2023-02-28T19:43:43.067Z,0.99
2023-02-28T19:46:12.329Z,0.88
2023-02-28T19:48:40.637Z,0.91
2023-02-28T19:51:11.190Z,0.78
2023-02-28T19:53:41.285Z,0.73
2023-02-28T19:56:09.977Z,0.72
2023-02-28T19:58:38.242Z,0.60
2023-02-28T20:01:16.211Z,0.64
2023-02-28T20:03:47.322Z,0.55
2023-02-28T20:06:15.412Z,0.51
2023-02-28T20:08:43.141Z,0.59
2023-02-28T20:11:13.341Z,0.64
2023-02-28T20:13:41.717Z,0.59
2023-02-28T20:16:11.306Z,0.56
2023-02-28T20:18:40.664Z,0.67
2023-02-28T20:21:09.515Z,0.57
2023-02-28T20:23:40.856Z,0.62
2023-02-28T20:26:08.549Z,0.54
2023-02-28T20:28:36.721Z,0.60
2023-02-28T20:31:10.689Z,0.56
2023-02-28T20:33:38.274Z,0.54
2023-02-28T20:36:06.263Z,0.59
2023-02-28T20:38:33.906Z,0.63
2023-02-28T20:41:02.738Z,0.60
2023-02-28T20:43:30.460Z,0.50
2023-02-28T20:46:02.082Z,0.43
2023-02-28T20:48:31.175Z,0.46
2023-02-28T20:51:00.123Z,0.48
2023-02-28T20:53:28.595Z,0.56
2023-02-28T20:56:05.014Z,0.50
2023-02-28T20:58:35.971Z,0.45
2023-02-28T21:01:16.347Z,0.49
2023-02-28T21:03:52.734Z,0.49
2023-02-28T21:06:22.472Z,0.43
2023-02-28T21:08:50.618Z,0.41
2023-02-28T21:11:27.171Z,0.47
2023-02-28T21:13:55.801Z,0.41
2023-02-28T21:16:24.806Z,0.34
2023-02-28T21:18:55.462Z,0.27
2023-02-28T21:21:25.254Z,0.33
2023-02-28T21:23:53.147Z,0.27
2023-02-28T21:26:23.408Z,0.40
2023-02-28T21:28:52.619Z,0.41
2023-02-28T21:31:22.068Z,0.32
2023-02-28T21:33:50.165Z,0.31
2023-02-28T21:36:20.722Z,0.34
2023-02-28T21:38:51.344Z,0.36
2023-02-28T21:41:21.402Z,0.39
2023-02-28T21:43:49.619Z,0.24
2023-02-28T21:46:22.515Z,0.26
2023-02-28T21:48:51.297Z,0.14
2023-02-28T21:51:24.511Z,0.21
2023-02-28T21:53:52.184Z,0.12
2023-02-28T21:56:22.713Z,0.11
2023-02-28T21:58:50.647Z,0.19
2023-02-28T22:01:20.765Z,0.15
2023-02-28T22:03:50.109Z,0.14
2023-02-28T22:06:20.821Z,0.20
2023-02-28T22:08:52.459Z,0.27
2023-02-28T22:11:21.279Z,0.14
2023-02-28T22:13:51.893Z,0.10
2023-02-28T22:16:21.195Z,0.11
2023-02-28T22:18:49.032Z,-0.03
2023-02-28T22:21:18.222Z,-0.04
2023-02-28T22:23:46.951Z,0.01
2023-02-28T22:26:18.535Z,0.06
2023-02-28T22:28:46.298Z,0.06
2023-02-28T22:31:32.234Z,0.08
2023-02-28T22:34:02.282Z,0.10
2023-02-28T22:36:30.747Z,0.00
2023-02-28T22:39:01.047Z,0.06
2023-02-28T22:41:29.566Z,-0.01
2023-02-28T22:43:59.421Z,-0.10
2023-02-28T22:46:31.681Z,0.03
2023-02-28T22:49:00.943Z,-0.05
2023-02-28T22:51:29.572Z,-0.04
2023-02-28T22:53:58.789Z,0.03
2023-02-28T22:56:29.280Z,0.11
2023-02-28T22:58:58.848Z,0.04
2023-02-28T23:01:29.748Z,-0.05
2023-02-28T23:03:58.072Z,-0.10
2023-02-28T23:06:28.413Z,-0.04
2023-02-28T23:08:59.066Z,0.01
2023-02-28T23:11:33.254Z,-0.11
2023-02-28T23:14:01.520Z,-0.10
2023-02-28T23:16:41.161Z,-0.06
2023-02-28T23:19:12.570Z,-0.15
2023-02-28T23:21:40.737Z,-0.12
2023-02-28T23:24:12.797Z,-0.14
2023-02-28T23:26:45.958Z,-0.24
2023-02-28T23:29:15.825Z,-0.12
2023-02-28T23:31:44.014Z,-0.09
2023-02-28T23:34:11.985Z,-0.12
2023-02-28T23:36:46.390Z,-0.08
2023-02-28T23:39:17.324Z,-0.06
2023-02-28T23:41:45.539Z,-0.15
2023-02-28T23:44:17.256Z,-0.14
2023-02-28T23:46:47.306Z,-0.17
2023-02-28T23:49:16.017Z,-0.10
2023-02-28T23:51:43.648Z,-0.04
2023-02-28T23:54:11.208Z,-0.08
2023-02-28T23:56:38.826Z,-0.14
2023-02-28T23:59:06.705Z,-0.10
